Time;durP1;ratioP1;P1;durP2;ratioP2;P2;SDS_P1;SDS_P2;PMS_P1;PMS_P2;Temp;Humidity;BMP_temperature;BMP_pressure;BME280_temperature;BME280_humidity;BME280_pressure;Samples;Min_cycle;Max_cycle;Signal;HPM_P1;HPM_P2
2023/05/08 00:02:04;;;;;;;8.13;7.33;;;9.90;1.00;;;;;;5089305;28;20441;-56
2023/05/08 00:04:30;;;;;;;6.77;6.13;;;9.80;1.00;;;;;;5082761;28;20210;-54
2023/05/08 00:06:55;;;;;;;7.73;6.70;;;9.80;1.00;;;;;;5065516;28;20245;-55
2023/05/08 00:09:21;;;;;;;8.67;7.57;;;9.80;1.00;;;;;;5083598;28;20223;-54
2023/05/08 00:11:47;;;;;;;8.20;7.20;;;9.80;1.00;;;;;;5067891;28;20202;-54
2023/05/08 00:14:12;;;;;;;7.63;7.03;;;9.80;1.00;;;;;;5066598;28;20578;-54
2023/05/08 00:16:38;;;;;;;8.17;7.37;;;9.70;1.00;;;;;;5063648;28;20454;-51
2023/05/08 00:19:04;;;;;;;7.70;7.00;;;9.60;1.00;;;;;;5069079;28;20191;-56
2023/05/08 00:21:30;;;;;;;9.63;8.63;;;9.60;1.00;;;;;;5069128;28;20192;-56
2023/05/08 00:23:55;;;;;;;7.33;6.63;;;9.60;1.00;;;;;;5069094;28;20203;-54
2023/05/08 00:26:21;;;;;;;7.53;6.80;;;9.60;1.00;;;;;;5065618;28;20484;-53
2023/05/08 00:28:47;;;;;;;8.47;7.67;;;9.60;1.00;;;;;;5066421;28;20219;-55
2023/05/08 00:31:13;;;;;;;7.70;7.00;;;9.50;1.00;;;;;;5069099;28;20187;-56
2023/05/08 00:33:39;;;;;;;7.50;6.70;;;9.50;1.00;;;;;;5066597;28;20546;-53
2023/05/08 00:36:05;;;;;;;8.30;7.50;;;9.50;1.00;;;;;;5068782;28;20441;-56
2023/05/08 00:38:35;;;;;;;8.10;7.30;;;9.50;1.00;;;;;;5063366;28;20603;-52
2023/05/08 00:41:01;;;;;;;7.90;7.20;;;9.50;1.00;;;;;;5068715;28;21012;-55
2023/05/08 00:43:27;;;;;;;7.43;6.73;;;9.40;1.00;;;;;;5069113;28;20487;-54
2023/05/08 00:45:59;;;;;;;8.53;7.53;;;9.40;1.00;;;;;;5067817;28;20473;-56
2023/05/08 00:48:29;;;;;;;8.20;6.60;;;9.40;1.00;;;;;;5067143;28;20537;-53
2023/05/08 00:50:55;;;;;;;8.60;7.80;;;9.30;1.00;;;;;;5068665;28;20430;-53
2023/05/08 00:53:22;;;;;;;8.70;7.43;;;9.30;1.00;;;;;;5068679;28;20581;-55
2023/05/08 00:55:50;;;;;;;7.97;7.23;;;9.30;1.00;;;;;;5071283;28;20488;-55
2023/05/08 00:58:16;;;;;;;7.80;7.10;;;9.30;1.00;;;;;;5068458;28;20450;-55
2023/05/08 01:00:43;;;;;;;9.20;7.00;;;9.30;1.00;;;;;;5068404;28;20457;-53
2023/05/08 01:03:09;;;;;;;8.20;7.47;;;9.30;1.00;;;;;;5070087;28;20450;-55
2023/05/08 01:05:35;;;;;;;8.30;7.50;;;9.30;1.00;;;;;;5089493;28;20475;-55
2023/05/08 01:08:01;;;;;;;7.97;7.27;;;9.30;1.00;;;;;;5079160;28;20574;-56
2023/05/08 01:10:39;;;;;;;7.13;6.53;;;9.30;1.00;;;;;;5068028;28;20477;-53
2023/05/08 01:13:15;;;;;;;8.20;7.40;;;9.30;1.00;;;;;;5071477;28;20445;-54
2023/05/08 01:16:01;;;;;;;8.27;7.57;;;9.20;1.00;;;;;;5071581;28;20453;-55
2023/05/08 01:18:29;;;;;;;11.43;6.97;;;9.20;1.00;;;;;;5068243;28;20458;-52
2023/05/08 01:21:25;;;;;;;7.83;7.03;;;9.20;1.00;;;;;;5069639;28;20618;-53
2023/05/08 01:24:10;;;;;;;8.43;7.50;;;9.10;1.00;;;;;;5069690;28;20845;-54
2023/05/08 01:27:03;;;;;;;7.63;6.90;;;9.10;1.00;;;;;;5065302;28;20902;-54
2023/05/08 01:29:54;;;;;;;8.43;7.63;;;9.10;1.00;;;;;;5069708;28;20472;-53
2023/05/08 01:32:25;;;;;;;8.40;7.60;;;9.00;1.00;;;;;;5066156;28;20450;-54
2023/05/08 01:34:59;;;;;;;8.70;7.83;;;9.00;1.00;;;;;;5068955;28;20437;-54
2023/05/08 01:38:05;;;;;;;8.30;7.60;;;9.00;1.00;;;;;;5071743;28;20490;-52
2023/05/08 01:40:39;;;;;;;7.57;6.87;;;9.00;1.00;;;;;;5070254;28;20481;-57
2023/05/08 01:43:09;;;;;;;8.57;7.77;;;9.00;1.00;;;;;;5063531;28;20480;-55
2023/05/08 01:45:39;;;;;;;9.07;8.03;;;8.90;1.00;;;;;;5067768;28;20485;-55
2023/05/08 01:48:09;;;;;;;8.80;8.00;;;8.90;1.00;;;;;;5068419;28;20445;-53
2023/05/08 01:50:47;;;;;;;8.50;7.60;;;8.90;1.00;;;;;;5070262;28;20438;-54
2023/05/08 01:53:21;;;;;;;8.73;8.03;;;8.90;1.00;;;;;;5071364;28;20445;-52
2023/05/08 01:55:52;;;;;;;9.67;7.53;;;8.90;1.00;;;;;;5069034;28;20476;-52
2023/05/08 01:58:18;;;;;;;7.83;7.07;;;8.90;1.00;;;;;;5071112;28;20444;-56
2023/05/08 02:00:44;;;;;;;8.03;7.33;;;8.90;1.00;;;;;;5071450;28;20460;-55
2023/05/08 02:03:12;;;;;;;8.80;7.90;;;8.90;1.00;;;;;;5070374;28;20811;-53
2023/05/08 02:05:38;;;;;;;9.93;8.00;;;8.90;1.00;;;;;;5070570;28;20501;-56
2023/05/08 02:08:07;;;;;;;8.70;7.80;;;8.90;1.00;;;;;;5068401;28;20456;-52
2023/05/08 02:10:34;;;;;;;8.17;7.37;;;8.80;1.00;;;;;;5067534;28;20512;-55
2023/05/08 02:13:01;;;;;;;9.67;8.70;;;8.80;1.00;;;;;;5070752;28;20525;-55
2023/05/08 02:15:29;;;;;;;9.13;8.23;;;8.80;1.00;;;;;;5069082;28;20790;-53
2023/05/08 02:17:57;;;;;;;8.10;7.37;;;8.70;1.00;;;;;;5066462;28;20455;-55
2023/05/08 02:20:23;;;;;;;8.60;7.73;;;8.70;1.00;;;;;;5068363;28;20449;-54
2023/05/08 02:22:50;;;;;;;11.53;7.60;;;8.70;1.00;;;;;;5091577;28;20482;-56
2023/05/08 02:25:17;;;;;;;9.47;7.30;;;8.60;1.00;;;;;;5067535;28;20469;-52
2023/05/08 02:27:44;;;;;;;8.10;7.30;;;8.60;1.00;;;;;;5064479;28;20442;-53
2023/05/08 02:30:15;;;;;;;9.17;8.10;;;8.60;1.00;;;;;;5069242;28;20507;-54
2023/05/08 02:32:46;;;;;;;9.80;8.90;;;8.50;1.00;;;;;;5069625;28;20430;-53
2023/05/08 02:35:13;;;;;;;8.80;7.30;;;8.50;1.00;;;;;;5070595;28;20450;-55
2023/05/08 02:37:44;;;;;;;8.80;7.90;;;8.50;1.00;;;;;;5069233;28;20468;-54
2023/05/08 02:40:12;;;;;;;12.90;9.10;;;8.50;1.00;;;;;;5068794;28;20481;-56
2023/05/08 02:42:38;;;;;;;9.00;8.00;;;8.50;1.00;;;;;;5067076;28;20477;-52
2023/05/08 02:45:05;;;;;;;8.00;7.30;;;8.40;1.00;;;;;;5068882;28;20473;-55
2023/05/08 02:47:50;;;;;;;9.00;8.10;;;8.40;1.00;;;;;;5070893;28;20834;-53
2023/05/08 02:50:44;;;;;;;11.67;7.77;;;8.40;1.00;;;;;;5067641;28;20543;-56
2023/05/08 02:53:16;;;;;;;8.20;7.40;;;8.30;1.00;;;;;;5080714;28;20998;-55
2023/05/08 02:55:51;;;;;;;8.27;7.47;;;8.30;1.00;;;;;;5069253;28;20470;-53
2023/05/08 02:58:28;;;;;;;9.37;8.43;;;8.30;1.00;;;;;;5068665;28;20504;-54
2023/05/08 03:01:05;;;;;;;8.60;7.67;;;8.30;1.00;;;;;;5070137;28;20544;-56
2023/05/08 03:03:43;;;;;;;9.10;8.20;;;8.30;1.00;;;;;;5067170;28;20453;-56
2023/05/08 03:06:22;;;;;;;8.40;7.60;;;8.30;1.00;;;;;;5066778;28;20445;-55
2023/05/08 03:08:51;;;;;;;9.93;8.83;;;8.30;1.00;;;;;;5063545;28;20450;-55
2023/05/08 03:11:24;;;;;;;10.87;8.53;;;8.30;1.00;;;;;;5065864;28;20537;-56
2023/05/08 03:13:57;;;;;;;9.87;8.87;;;8.30;1.00;;;;;;5069107;28;20454;-57
2023/05/08 03:16:26;;;;;;;9.60;8.70;;;8.30;1.00;;;;;;5066746;28;20449;-53
2023/05/08 03:19:00;;;;;;;9.57;8.43;;;8.30;1.00;;;;;;5068510;28;20453;-54
2023/05/08 03:21:29;;;;;;;9.53;8.53;;;8.20;1.00;;;;;;5067478;28;20998;-52
2023/05/08 03:23:58;;;;;;;10.80;8.20;;;8.20;1.00;;;;;;5069134;28;20473;-55
2023/05/08 03:26:24;;;;;;;9.53;8.60;;;8.20;1.00;;;;;;5066340;28;20457;-53
2023/05/08 03:28:53;;;;;;;9.23;8.37;;;8.20;1.00;;;;;;5065427;28;20947;-54
2023/05/08 03:31:21;;;;;;;9.20;8.30;;;8.10;1.00;;;;;;5067339;28;21019;-54
2023/05/08 03:33:49;;;;;;;10.23;9.00;;;8.10;1.00;;;;;;5067190;28;21052;-53
2023/05/08 03:36:16;;;;;;;9.07;8.17;;;8.10;1.00;;;;;;5067266;28;20445;-55
2023/05/08 03:38:42;;;;;;;11.50;9.00;;;8.20;1.00;;;;;;5068231;28;20448;-54
2023/05/08 03:41:07;;;;;;;9.57;8.40;;;8.10;1.00;;;;;;5067022;28;20441;-53
2023/05/08 03:43:36;;;;;;;8.90;7.97;;;8.10;1.00;;;;;;5070939;28;20948;-54
2023/05/08 03:46:04;;;;;;;10.10;8.77;;;8.20;1.00;;;;;;5070354;28;20184;-54
2023/05/08 03:48:33;;;;;;;8.90;7.97;;;8.20;1.00;;;;;;5067934;28;20473;-51
2023/05/08 03:51:01;;;;;;;9.47;8.50;;;8.10;1.00;;;;;;5068405;28;20507;-55
2023/05/08 03:53:29;;;;;;;9.27;8.37;;;8.10;1.00;;;;;;5064635;28;20442;-55
2023/05/08 03:55:56;;;;;;;8.70;7.90;;;8.10;1.00;;;;;;5065470;28;20520;-56
2023/05/08 03:58:41;;;;;;;11.17;8.70;;;8.00;1.00;;;;;;5066537;28;20446;-54
2023/05/08 04:01:36;;;;;;;9.23;8.10;;;8.20;1.00;;;;;;5074113;28;20764;-54
2023/05/08 04:04:10;;;;;;;9.40;8.47;;;8.20;1.00;;;;;;5061822;28;20470;-53
2023/05/08 04:06:48;;;;;;;9.50;8.57;;;8.20;1.00;;;;;;5067431;28;20531;-53
2023/05/08 04:09:23;;;;;;;8.83;7.93;;;8.30;1.00;;;;;;5067859;28;21370;-53
2023/05/08 04:11:55;;;;;;;8.93;8.10;;;8.30;1.00;;;;;;5066949;28;21023;-54
2023/05/08 04:14:25;;;;;;;9.33;8.33;;;8.40;1.00;;;;;;5068100;28;20521;-54
2023/05/08 04:16:52;;;;;;;9.40;8.50;;;8.40;1.00;;;;;;5067254;28;20544;-54
2023/05/08 04:19:28;;;;;;;9.33;8.43;;;8.50;1.00;;;;;;5067281;28;20445;-54
2023/05/08 04:21:58;;;;;;;9.63;8.67;;;8.50;1.00;;;;;;5066025;28;20736;-52
2023/05/08 04:24:27;;;;;;;8.30;7.50;;;8.60;1.00;;;;;;5064999;28;20465;-52
2023/05/08 04:26:54;;;;;;;8.80;8.00;;;8.60;1.00;;;;;;5066792;28;20474;-54
2023/05/08 04:29:20;;;;;;;7.90;7.20;;;8.50;1.00;;;;;;5066948;28;20564;-54
2023/05/08 04:31:46;;;;;;;9.23;8.33;;;8.60;1.00;;;;;;5066632;28;20517;-54
2023/05/08 04:34:13;;;;;;;8.63;7.70;;;8.70;1.00;;;;;;5065103;28;20442;-55
2023/05/08 04:36:39;;;;;;;9.13;8.23;;;8.70;1.00;;;;;;5065497;28;20500;-53
2023/05/08 04:39:04;;;;;;;8.07;7.27;;;8.80;1.00;;;;;;5065187;28;20449;-53
2023/05/08 04:41:31;;;;;;;7.77;6.97;;;8.90;1.00;;;;;;5069206;28;20449;-53
2023/05/08 04:43:56;;;;;;;8.87;8.00;;;9.00;1.00;;;;;;5066817;28;20238;-51
2023/05/08 04:46:23;;;;;;;8.60;7.80;;;9.00;1.00;;;;;;5067207;28;20929;-52
2023/05/08 04:48:49;;;;;;;8.60;7.80;;;9.10;1.00;;;;;;5068596;28;20668;-53
2023/05/08 04:51:14;;;;;;;8.00;7.30;;;9.20;1.00;;;;;;5085857;28;20433;-53
2023/05/08 04:53:40;;;;;;;7.57;6.83;;;9.30;1.00;;;;;;5067001;28;20195;-52
2023/05/08 04:56:06;;;;;;;7.37;6.67;;;9.40;1.00;;;;;;5066472;28;20250;-53
2023/05/08 04:58:31;;;;;;;8.10;6.70;;;9.50;1.00;;;;;;5065564;28;20196;-54
2023/05/08 05:01:01;;;;;;;9.03;6.73;;;9.60;1.00;;;;;;5065834;28;20195;-55
2023/05/08 05:03:27;;;;;;;8.10;7.30;;;9.60;1.00;;;;;;5067538;28;20636;-53
2023/05/08 05:05:59;;;;;;;7.83;6.50;;;9.70;1.00;;;;;;5072631;28;20526;-53
2023/05/08 05:08:25;;;;;;;6.10;5.53;;;9.80;1.00;;;;;;5061608;28;20184;-55
2023/05/08 05:10:51;;;;;;;7.30;6.60;;;9.90;1.00;;;;;;5062842;28;20450;-53
2023/05/08 05:13:17;;;;;;;7.30;6.70;;;10.00;1.00;;;;;;5063355;28;20438;-54
2023/05/08 05:15:43;;;;;;;7.40;6.70;;;10.10;1.00;;;;;;5064395;28;20442;-54
2023/05/08 05:18:08;;;;;;;6.90;6.20;;;10.20;1.00;;;;;;5067108;28;20442;-54
2023/05/08 05:20:34;;;;;;;6.40;5.80;;;10.30;1.00;;;;;;5062784;28;20196;-55
2023/05/08 05:23:00;;;;;;;7.83;5.23;;;10.40;1.00;;;;;;5063621;28;20226;-53
2023/05/08 05:25:25;;;;;;;5.13;4.63;;;10.40;1.00;;;;;;5064302;28;20211;-56
2023/05/08 05:27:51;;;;;;;6.40;5.23;;;10.50;1.00;;;;;;5065570;28;20802;-54
2023/05/08 05:30:17;;;;;;;6.20;5.17;;;10.60;1.00;;;;;;5070949;28;20250;-52
2023/05/08 05:32:42;;;;;;;6.40;4.73;;;10.70;1.00;;;;;;5064154;28;20196;-54
2023/05/08 05:35:09;;;;;;;6.70;5.10;;;10.80;1.00;;;;;;5066488;28;20272;-53
2023/05/08 05:37:34;;;;;;;5.03;4.63;;;10.90;1.00;;;;;;5064884;28;20283;-52
2023/05/08 05:40:00;;;;;;;5.40;4.47;;;11.00;1.00;;;;;;5064968;28;20521;-55
2023/05/08 05:42:26;;;;;;;5.33;4.80;;;11.10;1.00;;;;;;5068391;28;20220;-54
2023/05/08 05:44:52;;;;;;;5.53;4.63;;;11.20;1.00;;;;;;5070207;28;20531;-56
2023/05/08 05:47:17;;;;;;;5.20;4.80;;;11.10;1.00;;;;;;5070703;28;20188;-55
2023/05/08 05:49:45;;;;;;;5.43;4.93;;;11.20;1.00;;;;;;5066666;28;20183;-53
2023/05/08 05:52:12;;;;;;;12.63;5.10;;;11.30;1.00;;;;;;5071162;28;20176;-55
2023/05/08 05:54:37;;;;;;;4.40;4.10;;;11.50;1.00;;;;;;5068355;28;20461;-54
2023/05/08 05:57:04;;;;;;;6.77;4.60;;;11.50;1.00;;;;;;5068177;28;20475;-54
2023/05/08 05:59:30;;;;;;;5.00;4.23;;;11.50;1.00;;;;;;5069814;28;20196;-54
2023/05/08 06:01:55;;;;;;;5.47;4.13;;;11.60;1.00;;;;;;5069033;28;20446;-55
2023/05/08 06:04:21;;;;;;;5.10;4.60;;;11.70;1.00;;;;;;5075146;28;20986;-55
2023/05/08 06:06:47;;;;;;;5.43;4.90;;;11.90;1.00;;;;;;5069756;28;20199;-54
2023/05/08 06:09:12;;;;;;;4.40;4.00;;;11.90;99.90;;;;;;5068126;28;20188;-54
2023/05/08 06:11:38;;;;;;;4.23;3.83;;;12.00;99.90;;;;;;5069453;28;20947;-55
2023/05/08 06:14:04;;;;;;;6.63;4.00;;;11.80;99.90;;;;;;5066525;28;20671;-52
2023/05/08 06:16:29;;;;;;;5.07;4.60;;;11.90;99.90;;;;;;5062844;28;20188;-56
2023/05/08 06:18:55;;;;;;;4.70;4.30;;;12.10;99.90;;;;;;5065821;28;20358;-56
2023/05/08 06:21:21;;;;;;;5.40;4.33;;;12.20;99.90;;;;;;5069564;28;20519;-55
2023/05/08 06:23:47;;;;;;;11.50;5.80;;;12.30;99.90;;;;;;5065160;28;20457;-52
2023/05/08 06:26:12;;;;;;;5.80;5.20;;;12.50;99.90;;;;;;5063040;28;20200;-50
2023/05/08 06:28:38;;;;;;;5.57;4.07;;;12.60;99.90;;;;;;5065287;28;20207;-53
2023/05/08 06:31:03;;;;;;;5.00;4.50;;;12.70;99.90;;;;;;5064788;28;20267;-53
2023/05/08 06:33:29;;;;;;;3.97;3.57;;;12.90;99.90;;;;;;5065596;28;20179;-53
2023/05/08 06:35:55;;;;;;;5.80;4.27;;;12.90;99.90;;;;;;5074111;28;20217;-54
2023/05/08 06:38:20;;;;;;;3.90;3.50;;;13.10;99.90;;;;;;5066198;28;20217;-54
2023/05/08 06:40:48;;;;;;;5.23;4.07;;;13.20;99.90;;;;;;5069172;28;20312;-53
2023/05/08 06:43:14;;;;;;;6.20;4.63;;;13.20;99.90;;;;;;5062108;28;20503;-55
2023/05/08 06:45:42;;;;;;;8.90;4.23;;;13.50;99.90;;;;;;5070028;28;20474;-55
2023/05/08 06:48:07;;;;;;;4.87;4.47;;;13.60;99.90;;;;;;5067764;28;20825;-55
2023/05/08 06:50:36;;;;;;;4.03;3.60;;;13.60;99.90;;;;;;5067078;28;20461;-52
2023/05/08 06:53:01;;;;;;;6.37;4.10;;;13.60;99.90;;;;;;5067475;28;20187;-53
2023/05/08 06:55:27;;;;;;;5.07;3.80;;;13.60;99.90;;;;;;5070163;28;20438;-56
2023/05/08 06:57:52;;;;;;;4.23;3.83;;;13.60;99.90;;;;;;5069314;28;20261;-56
2023/05/08 07:00:18;;;;;;;5.70;4.43;;;13.60;99.90;;;;;;5070175;28;20274;-54
2023/05/08 07:02:44;;;;;;;4.43;4.03;;;13.80;99.90;;;;;;5062495;28;20508;-53
2023/05/08 07:05:09;;;;;;;5.50;4.57;;;13.90;99.90;;;;;;5068652;28;20284;-53
2023/05/08 07:07:36;;;;;;;4.27;3.90;;;13.90;99.90;;;;;;5067655;28;20204;-54
2023/05/08 07:10:02;;;;;;;4.27;3.67;;;13.90;99.90;;;;;;5069678;28;20430;-56
2023/05/08 07:12:28;;;;;;;4.50;4.07;;;13.90;99.90;;;;;;5067257;28;20190;-55
2023/05/08 07:14:53;;;;;;;5.80;3.67;;;14.00;99.90;;;;;;5067045;28;20801;-54
2023/05/08 07:17:19;;;;;;;4.87;4.00;;;14.20;99.90;;;;;;5065564;28;20210;-52
2023/05/08 07:19:49;;;;;;;3.40;3.10;;;14.40;99.90;;;;;;5064640;28;20549;-56
2023/05/08 07:22:15;;;;;;;4.20;3.80;;;14.50;99.90;;;;;;5063141;28;20191;-54
2023/05/08 07:24:41;;;;;;;3.73;3.43;;;14.30;99.90;;;;;;5063120;28;20543;-54
2023/05/08 07:27:07;;;;;;;4.10;3.60;;;14.50;99.90;;;;;;5066710;28;20179;-55
2023/05/08 07:29:34;;;;;;;3.80;3.27;;;14.50;99.90;;;;;;5060298;28;20325;-52
2023/05/08 07:32:00;;;;;;;3.50;3.20;;;14.50;99.90;;;;;;5069775;28;20843;-51
2023/05/08 07:34:26;;;;;;;3.77;3.33;;;14.40;99.90;;;;;;5069422;28;20508;-54
2023/05/08 07:36:52;;;;;;;3.77;3.47;;;14.70;99.90;;;;;;5068308;28;20504;-54
2023/05/08 07:39:18;;;;;;;3.73;3.00;;;14.70;99.90;;;;;;5067152;28;20450;-64
2023/05/08 07:41:44;;;;;;;3.00;2.80;;;14.80;99.90;;;;;;5063964;28;20203;-53
2023/05/08 07:44:10;;;;;;;3.20;2.67;;;14.90;99.90;;;;;;5065298;28;20204;-54
2023/05/08 07:46:36;;;;;;;2.30;2.10;;;15.10;99.90;;;;;;5067837;28;20456;-55
2023/05/08 07:49:02;;;;;;;3.50;2.60;;;15.00;99.90;;;;;;5064759;28;20658;-56
2023/05/08 07:51:28;;;;;;;4.50;2.87;;;15.10;99.90;;;;;;5062225;28;20926;-61
2023/05/08 07:53:54;;;;;;;2.80;2.60;;;15.10;99.90;;;;;;5064692;28;20500;-58
2023/05/08 07:56:21;;;;;;;3.97;3.47;;;15.20;99.90;;;;;;5059721;28;20243;-62
2023/05/08 07:58:47;;;;;;;5.43;2.70;;;15.40;99.90;;;;;;5069804;28;20184;-51
2023/05/08 08:01:13;;;;;;;2.83;2.57;;;15.60;99.90;;;;;;5065814;28;20499;-52
2023/05/08 08:03:38;;;;;;;2.47;2.20;;;15.80;99.90;;;;;;5064499;28;20244;-55
2023/05/08 08:06:04;;;;;;;5.23;2.23;;;15.90;99.90;;;;;;5071476;28;20627;-55
2023/05/08 08:08:30;;;;;;;2.63;2.30;;;16.00;99.90;;;;;;5070124;28;20184;-55
2023/05/08 08:10:55;;;;;;;2.70;2.40;;;16.10;99.90;;;;;;5062888;28;20216;-56
2023/05/08 08:13:21;;;;;;;2.43;2.23;;;16.20;99.90;;;;;;5067289;28;20530;-54
2023/05/08 08:15:47;;;;;;;5.23;2.57;;;16.30;99.90;;;;;;5066945;28;20245;-54
2023/05/08 08:18:12;;;;;;;5.13;2.83;;;16.30;99.90;;;;;;5067781;28;20301;-52
2023/05/08 08:20:38;;;;;;;4.50;2.33;;;16.40;99.90;;;;;;5064566;28;20188;-54
2023/05/08 08:23:04;;;;;;;3.50;1.83;;;16.40;99.90;;;;;;5064028;28;20496;-53
2023/05/08 08:25:30;;;;;;;2.67;2.00;;;16.40;99.90;;;;;;5062732;28;20210;-54
2023/05/08 08:27:57;;;;;;;2.00;1.80;;;16.50;99.90;;;;;;5070095;28;20433;-56
2023/05/08 08:30:22;;;;;;;3.43;2.03;;;16.40;99.90;;;;;;5066095;28;20271;-53
2023/05/08 08:32:48;;;;;;;2.90;2.03;;;16.40;99.90;;;;;;5072810;28;20570;-52
2023/05/08 08:35:14;;;;;;;2.87;2.20;;;16.40;99.90;;;;;;5068714;28;20539;-54
2023/05/08 08:37:39;;;;;;;8.30;2.37;;;16.60;99.90;;;;;;5069183;28;20191;-54
2023/05/08 08:40:06;;;;;;;5.63;2.00;;;16.70;99.90;;;;;;5068834;28;20184;-54
2023/05/08 08:42:31;;;;;;;2.23;1.73;;;16.90;99.90;;;;;;5068041;28;20215;-56
2023/05/08 08:44:57;;;;;;;1.83;1.53;;;17.00;99.90;;;;;;5070063;28;20528;-53
2023/05/08 08:47:28;;;;;;;1.97;1.87;;;17.20;99.90;;;;;;5068868;28;20176;-52
2023/05/08 08:49:56;;;;;;;3.70;1.80;;;17.00;99.90;;;;;;5066615;28;20188;-53
2023/05/08 08:52:34;;;;;;;2.63;1.83;;;17.50;99.90;;;;;;5068683;28;20797;-56
2023/05/08 08:55:02;;;;;;;2.80;2.13;;;17.60;99.90;;;;;;5064976;28;20453;-53
2023/05/08 08:57:34;;;;;;;2.40;2.20;;;17.60;99.90;;;;;;5067349;28;20473;-51
2023/05/08 09:00:04;;;;;;;2.03;1.90;;;17.90;99.90;;;;;;5068110;28;20474;-52
2023/05/08 09:02:30;;;;;;;2.70;2.27;;;17.90;99.90;;;;;;5068251;28;20437;-52
2023/05/08 09:04:57;;;;;;;7.30;2.40;;;18.00;99.90;;;;;;5064625;28;20968;-53
2023/05/08 09:07:24;;;;;;;2.20;2.00;;;18.20;99.90;;;;;;5068671;28;20537;-54
2023/05/08 09:09:51;;;;;;;9.23;2.27;;;18.20;99.90;;;;;;5066260;28;20508;-54
2023/05/08 09:12:17;;;;;;;2.83;1.67;;;18.10;99.90;;;;;;5068776;28;20935;-54
2023/05/08 09:14:43;;;;;;;2.63;1.80;;;18.00;99.90;;;;;;5067229;28;20422;-53
2023/05/08 09:17:09;;;;;;;8.47;2.70;;;18.00;99.90;;;;;;5069783;28;20534;-53
2023/05/08 09:19:35;;;;;;;6.47;2.30;;;18.00;99.90;;;;;;5075663;28;20187;-53
2023/05/08 09:22:02;;;;;;;2.20;1.77;;;18.10;99.90;;;;;;5085561;28;20450;-54
2023/05/08 09:25:04;;;;;;;2.07;1.80;;;18.30;99.90;;;;;;5072232;28;20473;-53
2023/05/08 09:27:31;;;;;;;1.90;1.80;;;18.50;99.90;;;;;;5008788;28;20440;-53
2023/05/08 09:30:04;;;;;;;2.20;2.00;;;18.80;99.90;;;;;;5059933;28;20445;-53
2023/05/08 09:32:31;;;;;;;3.10;1.53;;;18.70;99.90;;;;;;5071085;28;20852;-55
2023/05/08 09:34:57;;;;;;;3.03;1.90;;;18.80;99.90;;;;;;5072373;28;20884;-54
2023/05/08 09:37:24;;;;;;;4.00;1.93;;;18.80;99.90;;;;;;5067943;28;20455;-52
2023/05/08 09:39:50;;;;;;;1.90;1.63;;;18.90;99.90;;;;;;5080639;28;20510;-53
2023/05/08 09:42:16;;;;;;;3.30;1.80;;;19.00;99.90;;;;;;5084042;28;20445;-54
2023/05/08 09:44:48;;;;;;;2.00;1.80;;;19.20;99.90;;;;;;5071425;28;20692;-53
2023/05/08 09:47:16;;;;;;;1.70;1.60;;;19.20;99.90;;;;;;5080899;28;20180;-55
2023/05/08 09:50:00;;;;;;;1.67;1.57;;;19.30;99.90;;;;;;5070542;28;20527;-53
2023/05/08 09:52:27;;;;;;;2.40;1.90;;;19.50;99.90;;;;;;5068211;28;20801;-53
2023/05/08 09:54:59;;;;;;;2.23;2.00;;;19.50;99.90;;;;;;5068843;28;20781;-52
2023/05/08 09:57:27;;;;;;;2.37;2.07;;;19.60;99.90;;;;;;5078775;28;20552;-54
2023/05/08 10:00:12;;;;;;;2.10;1.90;;;19.70;99.90;;;;;;5086883;28;20836;-56
2023/05/08 10:02:40;;;;;;;2.43;2.23;;;19.60;99.90;;;;;;5070690;28;20826;-53
2023/05/08 10:05:21;;;;;;;4.50;2.47;;;19.60;99.90;;;;;;5071224;28;20436;-53
2023/05/08 10:07:47;;;;;;;2.40;2.20;;;19.70;99.90;;;;;;5070416;28;20419;-54
2023/05/08 10:10:13;;;;;;;3.70;2.23;;;19.90;99.90;;;;;;5091124;28;20989;-54
2023/05/08 10:12:40;;;;;;;2.70;2.23;;;19.90;99.90;;;;;;5086049;28;20192;-53
2023/05/08 10:15:06;;;;;;;3.03;2.10;;;19.90;99.90;;;;;;5071346;28;20194;-52
2023/05/08 10:18:02;;;;;;;3.47;2.13;;;19.80;99.90;;;;;;5070063;28;20740;-55
2023/05/08 10:20:29;;;;;;;2.30;2.10;;;19.60;99.90;;;;;;5065893;28;20416;-52
2023/05/08 10:22:57;;;;;;;2.60;2.40;;;19.40;99.90;;;;;;5069024;28;20451;-55
2023/05/08 10:25:23;;;;;;;2.90;2.60;;;19.30;99.90;;;;;;5068543;28;20543;-53
2023/05/08 10:28:20;;;;;;;5.37;2.80;;;19.30;99.90;;;;;;5069289;28;20450;-56
2023/05/08 10:30:49;;;;;;;2.37;2.17;;;19.60;99.90;;;;;;5071013;28;21117;-53
2023/05/08 10:33:19;;;;;;;3.00;2.63;;;19.70;99.90;;;;;;5070096;28;20478;-53
2023/05/08 10:35:45;;;;;;;2.70;2.13;;;19.90;99.90;;;;;;5075225;28;20412;-53
2023/05/08 10:38:11;;;;;;;2.80;2.60;;;20.10;99.90;;;;;;5069655;28;20989;-55
2023/05/08 10:40:37;;;;;;;3.13;2.50;;;20.00;99.90;;;;;;5067683;28;20474;-53
2023/05/08 10:43:05;;;;;;;2.23;2.00;;;19.80;99.90;;;;;;5070584;28;20180;-54
2023/05/08 10:45:32;;;;;;;4.37;2.40;;;19.80;99.90;;;;;;5067654;28;20447;-53
2023/05/08 10:48:06;;;;;;;2.63;2.00;;;19.80;99.90;;;;;;5070851;28;20522;-54
2023/05/08 10:50:47;;;;;;;2.60;2.40;;;20.00;99.90;;;;;;5063902;28;20511;-54
2023/05/08 10:53:30;;;;;;;2.97;2.77;;;20.20;99.90;;;;;;5075859;28;20437;-54
2023/05/08 10:55:56;;;;;;;4.97;2.40;;;20.10;99.90;;;;;;5070108;28;20473;-55
2023/05/08 10:58:28;;;;;;;3.10;1.90;;;20.00;99.90;;;;;;5070591;28;20445;-54
2023/05/08 11:00:58;;;;;;;2.60;2.40;;;19.90;99.90;;;;;;5067965;28;20618;-54
2023/05/08 11:03:25;;;;;;;2.30;2.10;;;20.10;99.90;;;;;;5070787;28;20426;-54
2023/05/08 11:05:53;;;;;;;3.00;2.70;;;20.40;99.90;;;;;;5067026;28;20469;-52
2023/05/08 11:08:23;;;;;;;2.90;2.57;;;20.60;99.90;;;;;;5068512;28;20954;-55
2023/05/08 11:10:58;;;;;;;2.20;2.00;;;20.80;99.90;;;;;;5070124;28;20448;-54
2023/05/08 11:13:35;;;;;;;3.60;2.40;;;21.00;99.90;;;;;;5072047;28;20933;-53
2023/05/08 11:16:02;;;;;;;2.50;2.30;;;20.90;99.90;;;;;;5070137;28;20472;-54
2023/05/08 11:18:28;;;;;;;2.70;2.50;;;21.00;99.90;;;;;;5065808;28;20770;-55
2023/05/08 11:21:02;;;;;;;2.83;2.50;;;21.10;99.90;;;;;;5070890;28;20482;-55
2023/05/08 11:23:30;;;;;;;4.00;2.70;;;21.10;99.90;;;;;;5072912;28;20836;-54
2023/05/08 11:26:03;;;;;;;2.10;2.00;;;20.90;99.90;;;;;;5077216;28;20472;-53
2023/05/08 11:28:53;;;;;;;1.93;1.83;;;20.80;99.90;;;;;;5082737;28;20420;-55
2023/05/08 11:31:19;;;;;;;1.80;1.70;;;20.70;99.90;;;;;;5089975;28;20529;-54
2023/05/08 11:33:45;;;;;;;2.37;1.90;;;20.70;99.90;;;;;;5084996;28;20825;-52
2023/05/08 11:36:21;;;;;;;2.50;2.30;;;20.70;99.90;;;;;;5065914;28;20882;-53
2023/05/08 11:39:12;;;;;;;2.33;1.87;;;20.80;99.90;;;;;;5064184;28;20241;-56
2023/05/08 11:41:38;;;;;;;3.23;1.93;;;21.20;99.90;;;;;;5071868;28;20477;-53
2023/05/08 11:44:04;;;;;;;2.33;2.00;;;21.40;99.90;;;;;;5070209;28;20900;-52
2023/05/08 11:46:43;;;;;;;3.90;2.10;;;21.50;99.90;;;;;;5069241;28;20441;-52
2023/05/08 11:49:15;;;;;;;2.67;2.10;;;21.70;99.90;;;;;;5068877;28;20209;-55
2023/05/08 11:51:44;;;;;;;3.93;2.37;;;21.70;99.90;;;;;;5065401;28;20911;-53
2023/05/08 11:54:18;;;;;;;3.57;2.63;;;21.50;99.90;;;;;;5066803;28;20893;-55
2023/05/08 11:56:48;;;;;;;2.30;2.03;;;21.40;99.90;;;;;;5068981;28;20474;-53
2023/05/08 11:59:15;;;;;;;1.87;1.77;;;21.20;99.90;;;;;;5074209;28;20445;-52
2023/05/08 12:01:41;;;;;;;3.50;2.30;;;20.80;99.90;;;;;;5089831;28;20456;-53
2023/05/08 12:04:11;;;;;;;3.43;2.33;;;20.70;99.90;;;;;;5068782;28;20502;-53
2023/05/08 12:06:38;;;;;;;2.20;1.87;;;20.40;99.90;;;;;;5069275;28;20478;-53
2023/05/08 12:09:19;;;;;;;2.20;1.93;;;20.30;99.90;;;;;;5072198;28;20937;-55
2023/05/08 12:11:45;;;;;;;4.60;2.10;;;20.10;99.90;;;;;;5067767;28;20435;-54
2023/05/08 12:14:12;;;;;;;2.07;1.87;;;20.00;99.90;;;;;;5075027;28;20458;-54
2023/05/08 12:16:38;;;;;;;2.40;2.20;;;20.20;99.90;;;;;;5083928;28;20179;-55
2023/05/08 12:19:12;;;;;;;4.60;3.07;;;20.70;99.90;;;;;;5089040;28;20433;-53
2023/05/08 12:21:37;;;;;;;2.30;2.10;;;20.90;99.90;;;;;;5069093;28;20450;-55
2023/05/08 12:24:09;;;;;;;2.47;2.27;;;21.10;99.90;;;;;;5067699;28;20419;-53
2023/05/08 12:26:36;;;;;;;6.53;5.70;;;21.00;99.90;;;;;;5069166;28;20684;-54
2023/05/08 12:29:04;;;;;;;2.47;2.17;;;21.10;99.90;;;;;;5064106;28;20449;-54
2023/05/08 12:31:30;;;;;;;3.93;2.43;;;21.20;99.90;;;;;;5069215;28;20409;-53
2023/05/08 12:33:57;;;;;;;4.67;2.60;;;21.10;99.90;;;;;;5066089;28;20540;-53
2023/05/08 12:36:23;;;;;;;2.40;2.17;;;21.20;99.90;;;;;;5066480;28;20417;-55
2023/05/08 12:38:50;;;;;;;6.60;2.10;;;21.30;99.90;;;;;;5065570;28;20949;-53
2023/05/08 12:41:22;;;;;;;2.40;2.20;;;21.50;99.90;;;;;;5063095;28;20603;-52
2023/05/08 12:43:48;;;;;;;3.93;2.00;;;21.60;99.90;;;;;;5068849;28;20426;-53
2023/05/08 12:46:16;;;;;;;4.00;2.17;;;21.70;99.90;;;;;;5069721;28;20478;-52
2023/05/08 12:48:42;;;;;;;4.57;1.90;;;21.80;99.90;;;;;;5069019;28;20592;-54
2023/05/08 12:51:10;;;;;;;3.97;2.27;;;21.90;99.90;;;;;;5061908;28;20477;-52
2023/05/08 12:53:37;;;;;;;3.20;2.17;;;21.70;99.90;;;;;;5066219;28;20184;-53
2023/05/08 12:56:03;;;;;;;3.00;2.07;;;21.50;99.90;;;;;;5072233;28;20469;-53
2023/05/08 12:58:31;;;;;;;2.20;2.00;;;21.30;99.90;;;;;;5072763;28;20416;-54
2023/05/08 13:01:12;;;;;;;2.47;2.20;;;21.10;99.90;;;;;;5064763;28;20442;-53
2023/05/08 13:03:39;;;;;;;4.47;1.63;;;21.30;99.90;;;;;;5064086;28;20882;-54
2023/05/08 13:06:05;;;;;;;2.27;1.73;;;21.50;99.90;;;;;;5063963;28;21101;-53